createdAt,value
2019-02-19T00:01:34.953Z,23.38
2019-02-19T00:04:03.364Z,22.53
2019-02-19T00:06:31.776Z,24.35
2019-02-19T00:09:00.258Z,24.10
2019-02-19T00:11:28.687Z,22.87
2019-02-19T00:13:57.178Z,26.27
2019-02-19T00:16:25.594Z,25.85
2019-02-19T00:18:54.018Z,23.80
2019-02-19T00:21:22.505Z,25.40
2019-02-19T00:23:50.979Z,25.65
2019-02-19T00:26:19.467Z,26.68
2019-02-19T00:28:47.895Z,28.62
2019-02-19T00:31:16.355Z,40.70
2019-02-19T00:33:44.770Z,31.82
2019-02-19T00:36:13.187Z,36.70
2019-02-19T00:38:41.675Z,29.48
2019-02-19T00:41:10.098Z,29.40
2019-02-19T00:43:38.530Z,29.72
2019-02-19T00:46:06.920Z,30.32
2019-02-19T00:48:35.430Z,31.57
2019-02-19T00:51:03.839Z,30.90
2019-02-19T00:53:32.255Z,31.70
2019-02-19T00:56:00.658Z,32.85
2019-02-19T00:58:29.094Z,30.32
2019-02-19T01:00:57.514Z,29.87
2019-02-19T01:03:25.979Z,30.70
2019-02-19T01:05:54.403Z,32.23
2019-02-19T01:08:22.815Z,32.20
2019-02-19T01:10:51.302Z,30.05
2019-02-19T01:13:19.720Z,31.95
2019-02-19T01:15:48.130Z,32.90
2019-02-19T01:18:16.571Z,33.28
2019-02-19T01:20:44.951Z,39.18
2019-02-19T01:23:13.384Z,33.70
2019-02-19T01:25:41.793Z,35.38
2019-02-19T01:28:10.210Z,34.38
2019-02-19T01:30:38.699Z,36.75
2019-02-19T01:33:07.232Z,39.25
2019-02-19T01:35:35.784Z,44.50
2019-02-19T01:38:04.191Z,36.90
2019-02-19T01:40:32.608Z,39.00
2019-02-19T01:43:01.015Z,40.83
2019-02-19T01:45:34.131Z,40.25
2019-02-19T01:47:59.475Z,27.57
2019-02-19T01:50:27.882Z,43.75
2019-02-19T01:52:56.295Z,40.83
2019-02-19T01:55:24.707Z,40.50
2019-02-19T01:57:53.114Z,37.78
2019-02-19T02:00:21.527Z,36.88
2019-02-19T02:02:49.949Z,38.33
2019-02-19T02:05:18.432Z,36.63
2019-02-19T02:07:46.852Z,43.85
2019-02-19T02:10:15.266Z,41.65
2019-02-19T02:12:43.686Z,42.25
2019-02-19T02:15:12.094Z,40.60
2019-02-19T02:17:40.510Z,42.45
2019-02-19T02:20:08.988Z,41.95
2019-02-19T02:22:37.416Z,41.13
2019-02-19T02:25:05.819Z,41.50
2019-02-19T02:27:34.230Z,39.73
2019-02-19T02:30:02.715Z,39.85
2019-02-19T02:32:31.124Z,42.20
2019-02-19T02:34:59.606Z,41.98
2019-02-19T02:37:28.020Z,42.35
2019-02-19T02:39:56.445Z,43.42
2019-02-19T02:42:24.867Z,44.15
2019-02-19T02:44:53.273Z,43.83
2019-02-19T02:47:21.690Z,43.00
2019-02-19T02:49:50.107Z,42.70
2019-02-19T02:52:18.516Z,43.95
2019-02-19T02:54:46.999Z,43.33
2019-02-19T02:57:15.415Z,42.88
2019-02-19T02:59:43.826Z,43.65
2019-02-19T03:02:12.240Z,42.62
2019-02-19T03:04:40.654Z,43.15
2019-02-19T03:07:10.716Z,43.02
2019-02-19T03:09:39.114Z,32.60
2019-02-19T03:12:07.531Z,45.08
2019-02-19T03:14:35.949Z,47.15
2019-02-19T03:17:04.426Z,47.15
2019-02-19T03:19:32.916Z,45.70
2019-02-19T03:22:01.394Z,47.90
2019-02-19T03:24:29.815Z,45.17
2019-02-19T03:26:58.218Z,45.92
2019-02-19T03:29:26.634Z,65.22
2019-02-19T03:31:55.136Z,78.50
2019-02-19T03:34:23.561Z,72.87
2019-02-19T03:36:51.970Z,76.92
2019-02-19T03:39:20.459Z,75.42
2019-02-19T03:41:48.951Z,57.43
2019-02-19T03:44:17.367Z,54.75
2019-02-19T03:46:45.784Z,52.53
2019-02-19T03:49:14.194Z,50.35
2019-02-19T03:51:42.616Z,48.48
2019-02-19T03:54:11.040Z,48.63
2019-02-19T03:56:39.450Z,47.98
2019-02-19T03:59:07.868Z,45.40
2019-02-19T04:01:36.286Z,47.65
2019-02-19T04:04:04.709Z,47.00
2019-02-19T04:06:33.190Z,49.23
2019-02-19T04:09:01.597Z,49.48
2019-02-19T04:11:30.019Z,49.42
2019-02-19T04:13:58.441Z,49.90
2019-02-19T04:16:26.921Z,49.00
2019-02-19T04:18:55.339Z,50.55
2019-02-19T04:21:23.750Z,49.55
2019-02-19T04:23:52.172Z,53.68
2019-02-19T04:26:20.581Z,49.30
2019-02-19T04:28:49.000Z,51.85
2019-02-19T04:31:17.408Z,50.75
2019-02-19T04:33:45.896Z,53.28
2019-02-19T04:36:14.311Z,53.02
2019-02-19T04:38:42.794Z,51.83
2019-02-19T04:41:11.221Z,52.23
2019-02-19T04:43:39.630Z,52.98
2019-02-19T04:46:08.047Z,54.08
2019-02-19T04:48:36.463Z,56.20
2019-02-19T04:51:05.326Z,52.67
2019-02-19T04:53:33.743Z,53.15
2019-02-19T04:56:02.167Z,54.83
2019-02-19T04:58:30.599Z,55.30
2019-02-19T05:00:59.018Z,52.03
2019-02-19T05:03:27.441Z,53.98
2019-02-19T05:05:55.862Z,53.20
2019-02-19T05:08:24.293Z,56.75
2019-02-19T05:10:52.701Z,58.95
2019-02-19T05:13:21.186Z,55.10
2019-02-19T05:15:49.594Z,63.25
2019-02-19T05:18:18.020Z,56.85
2019-02-19T05:20:46.432Z,56.90
2019-02-19T05:23:14.906Z,54.83
2019-02-19T05:25:43.318Z,56.83
2019-02-19T05:28:11.737Z,60.28
2019-02-19T05:30:40.152Z,56.05
2019-02-19T05:33:08.636Z,56.85
2019-02-19T05:35:37.127Z,55.43
2019-02-19T05:38:05.542Z,57.53
2019-02-19T05:40:33.957Z,55.80
2019-02-19T05:43:02.445Z,56.00
2019-02-19T05:45:30.868Z,56.37
2019-02-19T05:47:59.283Z,58.65
2019-02-19T05:50:27.768Z,56.85
2019-02-19T05:52:56.211Z,59.63
2019-02-19T05:55:24.633Z,59.23
2019-02-19T05:57:53.043Z,60.80
2019-02-19T06:00:21.526Z,55.38
2019-02-19T06:02:49.939Z,56.40
2019-02-19T06:05:18.363Z,58.95
2019-02-19T06:07:46.779Z,59.25
2019-02-19T06:10:15.212Z,60.05
2019-02-19T06:12:43.623Z,65.78
2019-02-19T06:15:12.318Z,63.30
2019-02-19T06:17:40.743Z,59.73
2019-02-19T06:20:09.428Z,62.55
2019-02-19T06:22:37.839Z,59.35
2019-02-19T06:25:08.211Z,58.55
2019-02-19T06:27:36.614Z,60.45
2019-02-19T06:30:11.177Z,59.67
2019-02-19T06:32:39.578Z,59.42
2019-02-19T06:35:08.535Z,65.12
2019-02-19T06:37:36.954Z,61.30
2019-02-19T06:40:08.439Z,62.08
2019-02-19T06:42:36.848Z,57.58
2019-02-19T06:45:05.907Z,60.35
2019-02-19T06:47:34.327Z,61.85
2019-02-19T06:50:02.984Z,59.23
2019-02-19T06:52:31.398Z,63.13
2019-02-19T06:54:59.828Z,58.08
2019-02-19T06:57:28.245Z,62.67
2019-02-19T06:59:56.758Z,60.55
2019-02-19T07:02:26.784Z,58.78
2019-02-19T07:04:55.482Z,59.45
2019-02-19T07:07:23.902Z,58.60
2019-02-19T07:09:52.385Z,62.38
2019-02-19T07:12:20.808Z,60.25
2019-02-19T07:14:49.228Z,61.90
2019-02-19T07:17:17.724Z,60.78
2019-02-19T07:19:46.194Z,59.60
2019-02-19T07:22:14.683Z,58.60
2019-02-19T07:24:43.106Z,62.43
2019-02-19T07:27:11.519Z,59.77
2019-02-19T07:29:39.940Z,63.20
2019-02-19T07:32:08.426Z,66.55
2019-02-19T07:34:36.843Z,65.52
2019-02-19T07:37:05.265Z,66.25
2019-02-19T07:39:33.674Z,64.47
2019-02-19T07:42:02.086Z,65.55
2019-02-19T07:44:30.566Z,68.83
2019-02-19T07:46:58.991Z,66.62
2019-02-19T07:49:27.409Z,66.35
2019-02-19T07:51:55.826Z,72.67
2019-02-19T07:54:24.239Z,70.90
2019-02-19T07:56:52.654Z,70.90
2019-02-19T07:59:21.071Z,66.65
2019-02-19T08:01:49.488Z,71.37
2019-02-19T08:04:17.904Z,71.28
2019-02-19T08:06:46.394Z,70.12
2019-02-19T08:09:14.883Z,70.42
2019-02-19T08:11:43.369Z,75.80
2019-02-19T08:14:11.778Z,75.75
2019-02-19T08:16:40.201Z,74.75
2019-02-19T08:19:08.610Z,68.33
2019-02-19T08:21:37.035Z,62.78
2019-02-19T08:24:05.466Z,68.25
2019-02-19T08:26:33.923Z,70.03
2019-02-19T08:29:13.052Z,70.90
2019-02-19T08:31:32.406Z,50.60
2019-02-19T08:34:00.886Z,69.47
2019-02-19T08:36:29.861Z,66.75
2019-02-19T08:38:58.314Z,63.55
2019-02-19T08:41:26.733Z,66.60
2019-02-19T08:43:55.221Z,67.50
2019-02-19T08:46:23.626Z,63.23
2019-02-19T08:48:52.112Z,65.72
2019-02-19T08:51:20.527Z,64.00
2019-02-19T08:53:49.007Z,65.62
2019-02-19T08:56:17.422Z,63.80
2019-02-19T08:58:45.911Z,65.50
2019-02-19T09:01:14.327Z,65.05
2019-02-19T09:03:42.738Z,65.42
2019-02-19T09:06:11.164Z,64.53
2019-02-19T09:08:39.719Z,66.28
2019-02-19T09:11:08.204Z,65.05
2019-02-19T09:13:36.600Z,63.05
2019-02-19T09:16:05.014Z,64.55
2019-02-19T09:18:33.537Z,64.32
2019-02-19T09:21:01.938Z,62.93
2019-02-19T09:23:30.360Z,65.85
2019-02-19T09:25:58.851Z,62.38
2019-02-19T09:28:27.271Z,63.90
2019-02-19T09:30:55.688Z,65.40
2019-02-19T09:33:24.103Z,63.45
2019-02-19T09:35:52.591Z,74.30
2019-02-19T09:38:21.003Z,67.47
2019-02-19T09:40:49.463Z,66.30
2019-02-19T09:43:17.947Z,67.47
2019-02-19T09:45:46.394Z,66.42
2019-02-19T09:48:14.803Z,65.50
2019-02-19T09:50:43.218Z,63.65
2019-02-19T09:53:11.655Z,64.15
2019-02-19T09:55:40.161Z,62.98
2019-02-19T09:58:08.604Z,63.90
2019-02-19T10:00:37.001Z,61.00
2019-02-19T10:03:05.431Z,65.15
2019-02-19T10:05:33.866Z,64.70
2019-02-19T10:08:02.269Z,59.80
2019-02-19T10:10:30.760Z,61.63
2019-02-19T10:12:59.166Z,61.15
2019-02-19T10:15:27.651Z,64.47
2019-02-19T10:17:56.067Z,64.67
2019-02-19T10:20:24.558Z,60.25
2019-02-19T10:22:52.968Z,60.10
2019-02-19T10:25:21.444Z,60.35
2019-02-19T10:27:49.863Z,61.23
2019-02-19T10:30:21.335Z,61.28
2019-02-19T10:32:49.755Z,60.30
2019-02-19T10:35:18.177Z,59.38
2019-02-19T10:37:46.587Z,60.35
2019-02-19T10:40:16.809Z,62.43
2019-02-19T10:42:45.227Z,64.35
2019-02-19T10:45:19.744Z,67.22
2019-02-19T10:47:48.163Z,67.00
2019-02-19T10:50:16.579Z,70.57
2019-02-19T10:52:45.260Z,71.92
2019-02-19T10:55:13.749Z,70.55
2019-02-19T10:57:42.161Z,66.15
2019-02-19T11:00:18.241Z,62.35
2019-02-19T11:02:46.888Z,59.38
2019-02-19T11:05:15.308Z,61.23
2019-02-19T11:07:43.790Z,58.23
2019-02-19T11:10:13.579Z,59.83
2019-02-19T11:12:42.035Z,62.30
2019-02-19T11:15:11.790Z,58.25
2019-02-19T11:17:40.210Z,59.45
2019-02-19T11:20:14.669Z,57.70
2019-02-19T11:22:43.268Z,59.65
2019-02-19T11:25:12.416Z,61.18
2019-02-19T11:27:40.841Z,57.90
2019-02-19T11:30:17.434Z,57.27
2019-02-19T11:32:45.928Z,59.10
2019-02-19T11:35:14.373Z,57.17
2019-02-19T11:37:42.759Z,59.23
2019-02-19T11:40:12.517Z,57.53
2019-02-19T11:42:40.935Z,57.60
2019-02-19T11:45:12.435Z,59.23
2019-02-19T11:47:40.944Z,66.15
2019-02-19T11:50:11.299Z,66.65
2019-02-19T11:52:41.695Z,64.27
2019-02-19T11:55:12.234Z,83.03
2019-02-19T11:57:40.770Z,64.22
2019-02-19T12:00:13.597Z,74.47
2019-02-19T12:02:42.010Z,69.58
2019-02-19T12:05:10.419Z,58.50
2019-02-19T12:07:38.839Z,57.70
2019-02-19T12:10:08.696Z,65.92
2019-02-19T12:12:37.109Z,60.15
2019-02-19T12:15:08.472Z,58.90
2019-02-19T12:17:36.964Z,58.17
2019-02-19T12:20:07.617Z,57.90
2019-02-19T12:22:36.036Z,61.50
2019-02-19T12:25:05.691Z,58.75
2019-02-19T12:27:34.112Z,60.52
2019-02-19T12:30:02.528Z,59.93
2019-02-19T12:32:31.014Z,59.00
2019-02-19T12:34:59.455Z,59.98
2019-02-19T12:37:27.945Z,64.72
2019-02-19T12:39:56.368Z,60.33
2019-02-19T12:42:24.846Z,65.45
2019-02-19T12:44:53.255Z,60.83
2019-02-19T12:47:21.674Z,60.10
2019-02-19T12:49:50.091Z,60.03
2019-02-19T12:52:18.524Z,59.75
2019-02-19T12:54:46.938Z,57.85
2019-02-19T12:57:15.350Z,56.88
2019-02-19T12:59:43.793Z,56.37
2019-02-19T13:02:12.355Z,62.85
2019-02-19T13:04:40.855Z,60.03
2019-02-19T13:07:09.367Z,60.40
2019-02-19T13:09:37.803Z,60.33
2019-02-19T13:12:06.207Z,61.92
2019-02-19T13:14:34.717Z,64.32
2019-02-19T13:17:03.208Z,102.17
2019-02-19T13:19:32.122Z,58.33
2019-02-19T13:22:01.154Z,60.12
2019-02-19T13:24:29.554Z,61.65
2019-02-19T13:26:58.107Z,58.98
2019-02-19T13:29:26.525Z,65.08
2019-02-19T13:31:54.961Z,79.70
2019-02-19T13:34:26.564Z,77.22
2019-02-19T13:36:55.029Z,86.37
2019-02-19T13:39:23.446Z,67.53
2019-02-19T13:41:51.861Z,63.40
2019-02-19T13:44:20.263Z,61.60
2019-02-19T13:46:48.741Z,62.20
2019-02-19T13:49:17.196Z,60.63
2019-02-19T13:51:45.612Z,74.32
2019-02-19T13:54:15.671Z,75.05
2019-02-19T13:56:44.087Z,45.77
2019-02-19T13:59:12.591Z,63.48
2019-02-19T14:01:41.012Z,73.62
2019-02-19T14:04:09.494Z,83.82
2019-02-19T14:06:39.584Z,77.95
2019-02-19T14:09:08.000Z,56.03
2019-02-19T14:11:36.422Z,79.72
2019-02-19T14:14:18.500Z,73.72
2019-02-19T14:16:54.310Z,74.85
2019-02-19T14:19:24.358Z,67.70
2019-02-19T14:22:10.329Z,53.90
2019-02-19T14:24:40.402Z,74.65
2019-02-19T14:27:16.208Z,72.23
2019-02-19T14:30:02.272Z,61.68
2019-02-19T14:32:44.107Z,60.35
2019-02-19T14:35:14.161Z,63.35
2019-02-19T14:37:47.570Z,67.97
2019-02-19T14:40:26.346Z,57.55
2019-02-19T14:42:56.418Z,60.00
2019-02-19T14:45:32.211Z,61.70
2019-02-19T14:48:13.858Z,99.03
2019-02-19T14:50:43.908Z,67.65
2019-02-19T14:53:29.985Z,65.67
2019-02-19T14:56:02.766Z,65.50
2019-02-19T14:58:48.936Z,61.30
2019-02-19T15:01:18.983Z,60.35
2019-02-19T15:04:05.102Z,65.03
2019-02-19T15:06:35.144Z,66.95
2019-02-19T15:09:16.994Z,52.80
2019-02-19T15:11:50.031Z,64.45
2019-02-19T15:14:26.116Z,61.92
2019-02-19T15:17:01.588Z,62.17
2019-02-19T15:19:43.764Z,64.90
2019-02-19T15:22:16.840Z,63.45
2019-02-19T15:24:46.904Z,81.85
2019-02-19T15:27:19.399Z,47.27
2019-02-19T15:30:05.497Z,64.15
2019-02-19T15:32:35.558Z,65.80
2019-02-19T15:35:18.166Z,67.33
2019-02-19T15:37:50.939Z,65.17
2019-02-19T15:40:23.463Z,89.30
2019-02-19T15:42:56.489Z,68.20
2019-02-19T15:45:26.548Z,70.52
2019-02-19T15:48:12.574Z,73.93
2019-02-19T15:50:57.720Z,64.05
2019-02-19T15:53:39.663Z,62.90
2019-02-19T15:56:17.363Z,67.27
2019-02-19T15:58:47.285Z,66.42
2019-02-19T16:01:32.000Z,67.22
2019-02-19T16:04:08.067Z,62.40
2019-02-19T16:06:40.780Z,64.42
2019-02-19T16:09:17.450Z,61.68
2019-02-19T16:11:47.499Z,59.60
2019-02-19T16:14:26.427Z,62.07
2019-02-19T16:17:08.519Z,70.20
2019-02-19T16:19:57.264Z,61.45
2019-02-19T16:22:36.371Z,58.35
2019-02-19T16:25:25.754Z,60.17
2019-02-19T16:27:55.807Z,60.52
2019-02-19T16:30:28.799Z,63.23
2019-02-19T16:33:16.627Z,65.87
2019-02-19T16:35:55.649Z,64.30
2019-02-19T16:38:25.734Z,68.92
2019-02-19T16:41:01.280Z,51.60
2019-02-19T16:43:31.339Z,62.70
2019-02-19T16:46:03.831Z,60.87
2019-02-19T16:48:36.878Z,63.73
2019-02-19T16:51:09.907Z,65.90
2019-02-19T16:53:55.020Z,68.07
2019-02-19T16:56:36.859Z,69.35
2019-02-19T16:59:07.636Z,68.92
2019-02-19T17:01:44.018Z,70.17
2019-02-19T17:04:23.128Z,67.58
2019-02-19T17:07:07.827Z,71.45
2019-02-19T17:09:43.362Z,73.25
2019-02-19T17:12:22.355Z,76.15
2019-02-19T17:15:07.277Z,75.47
2019-02-19T17:17:43.317Z,67.85
2019-02-19T17:20:21.289Z,68.60
2019-02-19T17:22:47.527Z,67.15
2019-02-19T17:25:35.563Z,69.07
2019-02-19T17:28:17.618Z,71.37
2019-02-19T17:30:53.366Z,65.15
2019-02-19T17:33:23.416Z,63.10
2019-02-19T17:35:56.424Z,52.20
2019-02-19T17:38:42.802Z,62.00
2019-02-19T17:41:12.876Z,59.50
2019-02-19T17:43:51.918Z,60.17
2019-02-19T17:46:22.028Z,58.30
2019-02-19T17:48:54.565Z,57.27
2019-02-19T17:51:24.687Z,54.70
2019-02-19T17:53:54.748Z,55.83
2019-02-19T17:56:36.684Z,51.73
2019-02-19T17:59:22.778Z,54.98
2019-02-19T18:01:52.818Z,58.13
2019-02-19T18:04:34.931Z,56.83
2019-02-19T18:07:07.844Z,46.75
2019-02-19T18:09:40.618Z,47.95
2019-02-19T18:12:13.650Z,47.70
2019-02-19T18:15:01.632Z,48.75
2019-02-19T18:17:34.342Z,53.52
2019-02-19T18:20:02.763Z,46.95
2019-02-19T18:22:31.243Z,47.30
2019-02-19T18:24:59.652Z,42.95
2019-02-19T18:27:28.139Z,41.02
2019-02-19T18:29:56.622Z,41.63
2019-02-19T18:32:25.078Z,38.45
2019-02-19T18:34:53.484Z,48.23
2019-02-19T18:37:21.900Z,43.52
2019-02-19T18:39:50.338Z,47.62
2019-02-19T18:42:18.743Z,47.65
2019-02-19T18:44:47.163Z,44.42
2019-02-19T18:47:15.568Z,44.77
2019-02-19T18:49:44.016Z,38.73
2019-02-19T18:52:12.424Z,37.53
2019-02-19T18:54:40.839Z,43.00
2019-02-19T18:57:11.173Z,40.05
2019-02-19T18:59:39.579Z,41.40
2019-02-19T19:02:08.068Z,43.15
2019-02-19T19:04:36.486Z,44.80
2019-02-19T19:07:04.909Z,39.70
2019-02-19T19:09:33.318Z,38.45
2019-02-19T19:12:01.803Z,36.23
2019-02-19T19:14:30.225Z,34.70
2019-02-19T19:16:58.636Z,30.97
2019-02-19T19:19:27.046Z,29.10
2019-02-19T19:21:55.462Z,29.90
2019-02-19T19:24:23.883Z,32.40
2019-02-19T19:26:52.290Z,28.62
2019-02-19T19:29:20.769Z,26.80
2019-02-19T19:31:49.182Z,25.30
2019-02-19T19:34:17.591Z,25.70
2019-02-19T19:36:46.013Z,26.45
2019-02-19T19:39:14.499Z,24.45
2019-02-19T19:41:42.908Z,25.17
2019-02-19T19:44:11.383Z,24.80
2019-02-19T19:46:39.801Z,24.40
2019-02-19T19:49:08.209Z,23.65
2019-02-19T19:51:36.649Z,22.73
2019-02-19T19:54:05.121Z,23.92
2019-02-19T19:56:33.531Z,23.90
2019-02-19T19:59:02.012Z,25.37
2019-02-19T20:01:30.425Z,23.45
2019-02-19T20:03:58.908Z,25.52
2019-02-19T20:06:27.359Z,22.80
2019-02-19T20:08:55.843Z,22.13
2019-02-19T20:11:24.259Z,21.60
2019-02-19T20:13:52.681Z,22.27
2019-02-19T20:16:21.498Z,21.20
2019-02-19T20:18:49.903Z,26.90
2019-02-19T20:21:26.560Z,24.18
2019-02-19T20:23:49.967Z,22.30
2019-02-19T20:26:18.559Z,22.62
2019-02-19T20:28:47.046Z,23.83
2019-02-19T20:31:15.455Z,23.62
2019-02-19T20:33:43.940Z,24.18
2019-02-19T20:36:12.353Z,23.40
2019-02-19T20:38:40.761Z,25.85
2019-02-19T20:41:09.258Z,23.05
2019-02-19T20:43:37.678Z,24.90
2019-02-19T20:46:06.154Z,29.02
2019-02-19T20:48:34.566Z,29.18
2019-02-19T20:51:03.052Z,34.00
2019-02-19T20:53:31.454Z,29.05
2019-02-19T20:56:01.703Z,27.00
2019-02-19T20:58:30.155Z,23.83
2019-02-19T21:00:58.547Z,26.65
2019-02-19T21:03:26.959Z,32.20
2019-02-19T21:05:55.450Z,26.15
2019-02-19T21:08:25.327Z,25.43
2019-02-19T21:10:53.808Z,24.07
2019-02-19T21:13:22.237Z,23.07
2019-02-19T21:15:50.731Z,25.65
2019-02-19T21:18:19.127Z,25.43
2019-02-19T21:20:47.543Z,27.10
2019-02-19T21:23:15.979Z,27.75
2019-02-19T21:25:44.439Z,28.25
2019-02-19T21:28:12.850Z,25.55
2019-02-19T21:30:41.274Z,25.77
2019-02-19T21:33:09.685Z,28.10
2019-02-19T21:35:38.108Z,27.22
2019-02-19T21:38:06.603Z,30.77
2019-02-19T21:40:35.091Z,25.37
2019-02-19T21:43:03.478Z,26.30
2019-02-19T21:45:31.893Z,26.75
2019-02-19T21:48:00.331Z,28.92
2019-02-19T21:50:28.794Z,22.87
2019-02-19T21:52:57.215Z,24.50
2019-02-19T21:55:25.694Z,22.30
2019-02-19T21:57:54.106Z,23.02
2019-02-19T22:00:22.693Z,28.90
2019-02-19T22:02:51.135Z,24.12
2019-02-19T22:05:19.570Z,27.40
2019-02-19T22:07:48.048Z,25.08
2019-02-19T22:10:16.464Z,23.87
2019-02-19T22:12:44.880Z,25.92
2019-02-19T22:15:14.194Z,24.23
2019-02-19T22:17:42.622Z,26.40
2019-02-19T22:20:34.474Z,26.90
2019-02-19T22:23:03.055Z,24.60
2019-02-19T22:25:31.472Z,25.08
2019-02-19T22:27:59.957Z,24.75
2019-02-19T22:30:28.372Z,21.57
2019-02-19T22:32:56.783Z,24.30
2019-02-19T22:35:25.191Z,26.00
2019-02-19T22:37:53.749Z,25.48
2019-02-19T22:40:22.085Z,25.80
2019-02-19T22:42:50.583Z,24.18
2019-02-19T22:45:18.998Z,26.30
2019-02-19T22:47:53.139Z,19.95
2019-02-19T22:50:17.557Z,23.73
2019-02-19T22:52:45.987Z,19.25
2019-02-19T22:55:27.867Z,20.12
2019-02-19T22:57:56.355Z,17.92
2019-02-19T23:00:47.160Z,19.07
2019-02-19T23:03:17.214Z,19.23
2019-02-19T23:05:45.635Z,13.53
2019-02-19T23:08:14.115Z,20.27
2019-02-19T23:10:42.601Z,18.57
2019-02-19T23:13:11.079Z,18.77
2019-02-19T23:15:39.494Z,16.97
2019-02-19T23:18:07.914Z,16.85
2019-02-19T23:20:36.321Z,17.20
2019-02-19T23:23:04.726Z,17.10
2019-02-19T23:25:33.146Z,15.63
2019-02-19T23:28:01.750Z,16.00
2019-02-19T23:30:30.120Z,13.93
2019-02-19T23:32:58.539Z,14.38
2019-02-19T23:35:37.415Z,14.33
2019-02-19T23:38:05.846Z,14.68
2019-02-19T23:40:34.396Z,12.90
2019-02-19T23:43:02.815Z,12.60
2019-02-19T23:45:31.229Z,12.30
2019-02-19T23:47:59.670Z,12.53
2019-02-19T23:50:28.055Z,12.07
2019-02-19T23:52:56.467Z,12.53
2019-02-19T23:55:24.883Z,11.80
2019-02-19T23:57:53.298Z,11.33
